sensor_id;sensor_type;location;lat;lon;timestamp;pressure;altitude;pressure_sealevel;temperature;humidity
48053;BME280;33824;51.600;5.718;2023-01-28T00:00:56;102736.56;;;4.09;82.26
48053;BME280;33824;51.600;5.718;2023-01-28T00:03:24;102741.84;;;4.09;82.07
48053;BME280;33824;51.600;5.718;2023-01-28T00:05:50;102735.22;;;4.02;82.22
48053;BME280;33824;51.600;5.718;2023-01-28T00:08:16;102744.50;;;4.09;82.78
48053;BME280;33824;51.600;5.718;2023-01-28T00:10:41;102738.78;;;4.16;82.51
48053;BME280;33824;51.600;5.718;2023-01-28T00:13:11;102740.31;;;4.20;82.02
48053;BME280;33824;51.600;5.718;2023-01-28T00:15:39;102747.19;;;4.23;81.85
48053;BME280;33824;51.600;5.718;2023-01-28T00:18:05;102744.84;;;4.18;82.31
48053;BME280;33824;51.600;5.718;2023-01-28T00:20:30;102745.09;;;4.14;82.40
48053;BME280;33824;51.600;5.718;2023-01-28T00:22:56;102755.47;;;4.17;82.53
48053;BME280;33824;51.600;5.718;2023-01-28T00:25:22;102745.09;;;4.14;82.45
48053;BME280;33824;51.600;5.718;2023-01-28T00:27:48;102743.31;;;4.14;82.28
48053;BME280;33824;51.600;5.718;2023-01-28T00:30:14;102746.88;;;4.13;82.62
48053;BME280;33824;51.600;5.718;2023-01-28T00:32:40;102751.97;;;4.16;82.63
48053;BME280;33824;51.600;5.718;2023-01-28T00:35:06;102745.84;;;4.16;81.97
48053;BME280;33824;51.600;5.718;2023-01-28T00:37:32;102748.66;;;4.13;80.71
48053;BME280;33824;51.600;5.718;2023-01-28T00:39:57;102754.81;;;4.13;80.24
48053;BME280;33824;51.600;5.718;2023-01-28T00:42:23;102755.06;;;4.09;80.45
48053;BME280;33824;51.600;5.718;2023-01-28T00:44:48;102766.72;;;4.05;80.14
48053;BME280;33824;51.600;5.718;2023-01-28T00:47:14;102765.88;;;4.04;80.55
48053;BME280;33824;51.600;5.718;2023-01-28T00:49:40;102765.28;;;3.99;80.96
48053;BME280;33824;51.600;5.718;2023-01-28T00:52:05;102765.28;;;3.99;81.05
48053;BME280;33824;51.600;5.718;2023-01-28T00:54:31;102770.56;;;3.99;81.27
48053;BME280;33824;51.600;5.718;2023-01-28T00:56:56;102774.88;;;4.00;80.94
48053;BME280;33824;51.600;5.718;2023-01-28T00:59:22;102772.66;;;3.93;81.65
48053;BME280;33824;51.600;5.718;2023-01-28T01:01:47;102782.22;;;3.95;81.40
48053;BME280;33824;51.600;5.718;2023-01-28T01:04:13;102772.66;;;3.93;81.48
48053;BME280;33824;51.600;5.718;2023-01-28T01:06:51;102768.59;;;3.87;81.50
48053;BME280;33824;51.600;5.718;2023-01-28T01:09:16;102775.47;;;3.90;80.58
48053;BME280;33824;51.600;5.718;2023-01-28T01:11:42;102764.94;;;3.90;80.58
48053;BME280;33824;51.600;5.718;2023-01-28T01:14:09;102765.28;;;3.83;80.53
48053;BME280;33824;51.600;5.718;2023-01-28T01:16:34;102763.56;;;3.82;80.51
48053;BME280;33824;51.600;5.718;2023-01-28T01:19:01;102767.06;;;3.83;79.95
48053;BME280;33824;51.600;5.718;2023-01-28T01:21:29;102763.91;;;3.76;79.46
48053;BME280;33824;51.600;5.718;2023-01-28T01:23:55;102765.69;;;3.76;79.72
48053;BME280;33824;51.600;5.718;2023-01-28T01:26:21;102767.31;;;3.78;79.77
48053;BME280;33824;51.600;5.718;2023-01-28T01:28:47;102765.84;;;3.73;79.72
48053;BME280;33824;51.600;5.718;2023-01-28T01:31:16;102764.06;;;3.73;80.17
48053;BME280;33824;51.600;5.718;2023-01-28T01:33:44;102763.47;;;3.68;79.27
48053;BME280;33824;51.600;5.718;2023-01-28T01:36:12;102765.69;;;3.76;79.10
48053;BME280;33824;51.600;5.718;2023-01-28T01:38:38;102764.66;;;3.78;79.30
48053;BME280;33824;51.600;5.718;2023-01-28T01:41:07;102768.41;;;3.74;79.47
48053;BME280;33824;51.600;5.718;2023-01-28T01:43:54;102772.66;;;3.61;79.06
48053;BME280;33824;51.600;5.718;2023-01-28T01:46:29;102770.16;;;3.58;79.02
48053;BME280;33824;51.600;5.718;2023-01-28T01:49:05;102774.94;;;3.67;78.26
48053;BME280;33824;51.600;5.718;2023-01-28T01:51:33;102775.28;;;3.77;78.78
48053;BME280;33824;51.600;5.718;2023-01-28T01:54:00;102776.31;;;3.74;78.33
48053;BME280;33824;51.600;5.718;2023-01-28T01:56:29;102782.44;;;3.75;78.07
48053;BME280;33824;51.600;5.718;2023-01-28T01:58:57;102779.63;;;3.78;78.37
48053;BME280;33824;51.600;5.718;2023-01-28T02:01:27;102783.19;;;3.77;78.83
48053;BME280;33824;51.600;5.718;2023-01-28T02:04:09;102778.34;;;3.69;78.59
48053;BME280;33824;51.600;5.718;2023-01-28T02:06:38;102777.84;;;3.78;79.01
48053;BME280;33824;51.600;5.718;2023-01-28T02:09:27;102778.50;;;3.66;78.77
48053;BME280;33824;51.600;5.718;2023-01-28T02:12:00;102778.88;;;3.76;79.38
48053;BME280;33824;51.600;5.718;2023-01-28T02:14:28;102780.25;;;3.83;79.08
48053;BME280;33824;51.600;5.718;2023-01-28T02:16:57;102777.63;;;3.83;79.13
48053;BME280;33824;51.600;5.718;2023-01-28T02:19:26;102785.53;;;3.83;79.08
48053;BME280;33824;51.600;5.718;2023-01-28T02:22:05;102781.78;;;3.71;79.13
48053;BME280;33824;51.600;5.718;2023-01-28T02:30:24;102774.25;;;3.64;78.82
48053;BME280;33824;51.600;5.718;2023-01-28T02:32:59;102779.44;;;3.65;78.85
48053;BME280;33824;51.600;5.718;2023-01-28T02:35:35;102775.56;;;3.72;78.86
48053;BME280;33824;51.600;5.718;2023-01-28T02:38:15;102772.56;;;3.63;78.99
48053;BME280;33824;51.600;5.718;2023-01-28T02:40:45;102776.56;;;3.70;78.82
48053;BME280;33824;51.600;5.718;2023-01-28T02:45:58;102770.00;;;3.77;79.27
48053;BME280;33824;51.600;5.718;2023-01-28T02:48:43;102771.72;;;3.78;79.40
48053;BME280;33824;51.600;5.718;2023-01-28T02:51:28;102776.72;;;3.67;79.36
48053;BME280;33824;51.600;5.718;2023-01-28T02:54:14;102777.66;;;3.66;79.34
48053;BME280;33824;51.600;5.718;2023-01-28T03:02:29;102768.13;;;3.63;79.63
48053;BME280;33824;51.600;5.718;2023-01-28T03:05:06;102783.63;;;3.69;79.47
48053;BME280;33824;51.600;5.718;2023-01-28T03:07:37;102778.72;;;3.79;80.05
48053;BME280;33824;51.600;5.718;2023-01-28T03:10:06;102777.84;;;3.78;79.89
48053;BME280;33824;51.600;5.718;2023-01-28T03:12:36;102781.66;;;3.73;79.13
48053;BME280;33824;51.600;5.718;2023-01-28T03:15:25;102780.84;;;3.72;78.91
48053;BME280;33824;51.600;5.718;2023-01-28T03:18:31;102776.91;;;3.64;79.09
48053;BME280;33824;51.600;5.718;2023-01-28T03:21:31;102785.97;;;3.58;78.58
48053;BME280;33824;51.600;5.718;2023-01-28T03:24:23;102787.69;;;3.59;78.46
48053;BME280;33824;51.600;5.718;2023-01-28T03:27:32;102778.41;;;3.52;78.50
48053;BME280;33824;51.600;5.718;2023-01-28T03:30:29;102781.66;;;3.57;78.13
48053;BME280;33824;51.600;5.718;2023-01-28T03:33:18;102778.63;;;3.65;78.48
48053;BME280;33824;51.600;5.718;2023-01-28T03:36:05;102784.72;;;3.65;78.31
48053;BME280;33824;51.600;5.718;2023-01-28T03:38:50;102791.63;;;3.68;78.45
48053;BME280;33824;51.600;5.718;2023-01-28T03:41:24;102790.00;;;3.65;78.13
48053;BME280;33824;51.600;5.718;2023-01-28T03:43:51;102790.59;;;3.70;77.98
48053;BME280;33824;51.600;5.718;2023-01-28T03:46:18;102783.63;;;3.69;78.19
48053;BME280;33824;51.600;5.718;2023-01-28T03:48:44;102784.31;;;3.73;78.19
48053;BME280;33824;51.600;5.718;2023-01-28T03:51:10;102784.31;;;3.73;78.07
48053;BME280;33824;51.600;5.718;2023-01-28T03:53:37;102782.53;;;3.73;78.00
48053;BME280;33824;51.600;5.718;2023-01-28T03:56:03;102789.50;;;3.74;78.32
48053;BME280;33824;51.600;5.718;2023-01-28T03:58:29;102783.47;;;3.72;78.30
48053;BME280;33824;51.600;5.718;2023-01-28T04:01:17;102795.03;;;3.70;78.26
48053;BME280;33824;51.600;5.718;2023-01-28T04:03:43;102791.81;;;3.65;77.56
48053;BME280;33824;51.600;5.718;2023-01-28T04:06:08;102793.66;;;3.63;77.57
48053;BME280;33824;51.600;5.718;2023-01-28T04:08:34;102798.00;;;3.64;77.45
48053;BME280;33824;51.600;5.718;2023-01-28T04:11:00;102801.91;;;3.57;77.48
48053;BME280;33824;51.600;5.718;2023-01-28T04:13:41;102806.16;;;3.59;77.64
48053;BME280;33824;51.600;5.718;2023-01-28T04:16:06;102808.81;;;3.59;78.15
48053;BME280;33824;51.600;5.718;2023-01-28T04:18:33;102808.81;;;3.59;78.50
48053;BME280;33824;51.600;5.718;2023-01-28T04:20:59;102812.97;;;3.63;78.51
48053;BME280;33824;51.600;5.718;2023-01-28T04:23:25;102814.75;;;3.63;78.33
48053;BME280;33824;51.600;5.718;2023-01-28T04:25:50;102813.84;;;3.64;78.88
48053;BME280;33824;51.600;5.718;2023-01-28T04:28:17;102801.75;;;3.60;78.66
48053;BME280;33824;51.600;5.718;2023-01-28T04:30:42;102813.31;;;3.57;79.35
48053;BME280;33824;51.600;5.718;2023-01-28T04:33:08;102812.69;;;3.52;79.15
48053;BME280;33824;51.600;5.718;2023-01-28T04:35:33;102810.91;;;3.53;78.86
48053;BME280;33824;51.600;5.718;2023-01-28T04:37:59;102808.19;;;3.54;78.31
48053;BME280;33824;51.600;5.718;2023-01-28T04:40:24;102811.09;;;3.50;77.70
48053;BME280;33824;51.600;5.718;2023-01-28T04:42:56;102805.13;;;3.46;77.00
48053;BME280;33824;51.600;5.718;2023-01-28T04:45:22;102803.41;;;3.45;77.03
48053;BME280;33824;51.600;5.718;2023-01-28T04:47:48;102802.63;;;3.43;75.53
48053;BME280;33824;51.600;5.718;2023-01-28T04:50:14;102803.19;;;3.32;74.88
48053;BME280;33824;51.600;5.718;2023-01-28T04:52:40;102810.00;;;3.36;74.80
48053;BME280;33824;51.600;5.718;2023-01-28T04:55:06;102811.50;;;3.42;75.13
48053;BME280;33824;51.600;5.718;2023-01-28T04:57:32;102806.13;;;3.44;75.27
48053;BME280;33824;51.600;5.718;2023-01-28T04:59:57;102809.84;;;3.39;75.46
48053;BME280;33824;51.600;5.718;2023-01-28T05:02:23;102817.16;;;3.34;74.77
48053;BME280;33824;51.600;5.718;2023-01-28T05:04:48;102820.56;;;3.36;74.68
48053;BME280;33824;51.600;5.718;2023-01-28T05:07:14;102817.28;;;3.31;74.21
48053;BME280;33824;51.600;5.718;2023-01-28T05:09:40;102814.66;;;3.31;74.42
48053;BME280;33824;51.600;5.718;2023-01-28T05:12:06;102817.38;;;3.30;74.03
48053;BME280;33824;51.600;5.718;2023-01-28T05:14:31;102811.94;;;3.33;73.45
48053;BME280;33824;51.600;5.718;2023-01-28T05:16:57;102818.84;;;3.35;74.28
48053;BME280;33824;51.600;5.718;2023-01-28T05:19:22;102814.34;;;3.37;74.15
48053;BME280;33824;51.600;5.718;2023-01-28T05:21:48;102817.84;;;3.38;74.28
48053;BME280;33824;51.600;5.718;2023-01-28T05:24:13;102822.44;;;3.34;74.85
48053;BME280;33824;51.600;5.718;2023-01-28T05:26:40;102822.63;;;3.47;74.93
48053;BME280;33824;51.600;5.718;2023-01-28T05:29:06;102816.50;;;3.47;74.90
48053;BME280;33824;51.600;5.718;2023-01-28T05:31:32;102810.41;;;3.46;75.13
48053;BME280;33824;51.600;5.718;2023-01-28T05:33:57;102809.59;;;3.44;75.29
48053;BME280;33824;51.600;5.718;2023-01-28T05:36:23;102798.38;;;3.41;75.36
48053;BME280;33824;51.600;5.718;2023-01-28T05:38:48;102805.25;;;3.43;75.96
48053;BME280;33824;51.600;5.718;2023-01-28T05:41:14;102796.25;;;3.47;75.77
48053;BME280;33824;51.600;5.718;2023-01-28T05:43:40;102806.03;;;3.45;76.34
48053;BME280;33824;51.600;5.718;2023-01-28T05:46:06;102802.38;;;3.48;76.27
48053;BME280;33824;51.600;5.718;2023-01-28T05:48:31;102804.25;;;3.46;76.60
48053;BME280;33824;51.600;5.718;2023-01-28T05:50:57;102819.22;;;3.45;76.89
48053;BME280;33824;51.600;5.718;2023-01-28T05:53:22;102814.25;;;3.39;77.68
48053;BME280;33824;51.600;5.718;2023-01-28T05:55:49;102814.59;;;3.33;77.65
48053;BME280;33824;51.600;5.718;2023-01-28T05:58:15;102805.06;;;3.30;77.16
48053;BME280;33824;51.600;5.718;2023-01-28T06:00:41;102812.13;;;3.30;76.75
48053;BME280;33824;51.600;5.718;2023-01-28T06:03:07;102816.38;;;3.32;76.90
48053;BME280;33824;51.600;5.718;2023-01-28T06:05:33;102819.88;;;3.33;77.02
48053;BME280;33824;51.600;5.718;2023-01-28T06:07:58;102816.38;;;3.32;77.17
48053;BME280;33824;51.600;5.718;2023-01-28T06:10:24;102819.78;;;3.34;77.41
48053;BME280;33824;51.600;5.718;2023-01-28T06:12:49;102819.69;;;3.36;77.31
48053;BME280;33824;51.600;5.718;2023-01-28T06:15:15;102822.66;;;3.30;77.32
48053;BME280;33824;51.600;5.718;2023-01-28T06:17:41;102825.69;;;3.22;77.50
48053;BME280;33824;51.600;5.718;2023-01-28T06:20:07;102822.28;;;3.20;77.96
48053;BME280;33824;51.600;5.718;2023-01-28T06:22:33;102826.69;;;3.20;77.29
48053;BME280;33824;51.600;5.718;2023-01-28T06:24:59;102828.41;;;3.21;77.48
48053;BME280;33824;51.600;5.718;2023-01-28T06:27:24;102818.41;;;3.10;76.75
48053;BME280;33824;51.600;5.718;2023-01-28T06:29:50;102819.50;;;3.06;75.88
48053;BME280;33824;51.600;5.718;2023-01-28T06:32:15;102834.28;;;3.09;75.82
48053;BME280;33824;51.600;5.718;2023-01-28T06:34:41;102829.34;;;3.03;75.23
48053;BME280;33824;51.600;5.718;2023-01-28T06:37:06;102823.81;;;2.90;74.33
48053;BME280;33824;51.600;5.718;2023-01-28T06:39:32;102829.41;;;2.84;73.75
48053;BME280;33824;51.600;5.718;2023-01-28T06:42:00;102830.81;;;2.91;74.22
48053;BME280;33824;51.600;5.718;2023-01-28T06:44:25;102834.53;;;3.04;74.39
48053;BME280;33824;51.600;5.718;2023-01-28T06:46:51;102837.03;;;3.07;74.44
48053;BME280;33824;51.600;5.718;2023-01-28T06:49:16;102839.03;;;3.02;73.46
48053;BME280;33824;51.600;5.718;2023-01-28T06:51:42;102831.06;;;3.04;74.16
48053;BME280;33824;51.600;5.718;2023-01-28T06:54:07;102835.53;;;3.02;74.24
48053;BME280;33824;51.600;5.718;2023-01-28T06:56:33;102836.91;;;3.09;74.63
48053;BME280;33824;51.600;5.718;2023-01-28T06:58:59;102836.44;;;3.01;73.99
48053;BME280;33824;51.600;5.718;2023-01-28T07:01:24;102832.59;;;2.90;74.58
48053;BME280;33824;51.600;5.718;2023-01-28T07:03:50;102836.53;;;2.99;74.13
48053;BME280;33824;51.600;5.718;2023-01-28T07:06:15;102833.44;;;3.08;74.23
48053;BME280;33824;51.600;5.718;2023-01-28T07:08:41;102843.59;;;3.16;74.16
48053;BME280;33824;51.600;5.718;2023-01-28T07:11:07;102844.53;;;3.15;74.41
48053;BME280;33824;51.600;5.718;2023-01-28T07:13:33;102853.53;;;3.11;74.44
48053;BME280;33824;51.600;5.718;2023-01-28T07:15:59;102848.25;;;3.11;74.60
48053;BME280;33824;51.600;5.718;2023-01-28T07:18:25;102847.25;;;3.13;74.40
48053;BME280;33824;51.600;5.718;2023-01-28T07:20:51;102857.16;;;3.08;74.09
48053;BME280;33824;51.600;5.718;2023-01-28T07:23:17;102855.63;;;3.04;74.55
48053;BME280;33824;51.600;5.718;2023-01-28T07:25:42;102850.81;;;2.95;74.44
48053;BME280;33824;51.600;5.718;2023-01-28T07:28:08;102861.56;;;2.90;74.92
48053;BME280;33824;51.600;5.718;2023-01-28T07:30:34;102868.06;;;2.83;75.03
48053;BME280;33824;51.600;5.718;2023-01-28T07:33:00;102874.03;;;2.87;74.98
48053;BME280;33824;51.600;5.718;2023-01-28T07:35:26;102875.66;;;2.89;74.81
48053;BME280;33824;51.600;5.718;2023-01-28T07:37:56;102871.47;;;2.85;74.74
48053;BME280;33824;51.600;5.718;2023-01-28T07:40:22;102871.28;;;2.71;74.30
48053;BME280;33824;51.600;5.718;2023-01-28T07:42:48;102876.66;;;2.70;74.56
48053;BME280;33824;51.600;5.718;2023-01-28T07:45:14;102882.75;;;2.70;74.25
48053;BME280;33824;51.600;5.718;2023-01-28T07:47:40;102887.19;;;2.70;74.53
48053;BME280;33824;51.600;5.718;2023-01-28T07:50:07;102887.09;;;2.71;75.15
48053;BME280;33824;51.600;5.718;2023-01-28T07:52:33;102887.25;;;2.68;74.65
48053;BME280;33824;51.600;5.718;2023-01-28T07:55:09;102884.78;;;2.65;74.96
48053;BME280;33824;51.600;5.718;2023-01-28T07:57:36;102889.81;;;2.70;74.92
48053;BME280;33824;51.600;5.718;2023-01-28T08:00:02;102897.78;;;2.68;75.04
48053;BME280;33824;51.600;5.718;2023-01-28T08:02:28;102897.72;;;2.70;74.95
48053;BME280;33824;51.600;5.718;2023-01-28T08:04:54;102900.97;;;2.75;74.84
48053;BME280;33824;51.600;5.718;2023-01-28T08:07:23;102897.72;;;2.70;73.66
48053;BME280;33824;51.600;5.718;2023-01-28T08:09:50;102900.38;;;2.70;74.43
48053;BME280;33824;51.600;5.718;2023-01-28T08:12:16;102905.53;;;2.71;74.63
48053;BME280;33824;51.600;5.718;2023-01-28T08:14:42;102898.28;;;2.76;74.42
48053;BME280;33824;51.600;5.718;2023-01-28T08:17:07;102904.47;;;2.75;74.69
48053;BME280;33824;51.600;5.718;2023-01-28T08:19:33;102901.56;;;2.81;74.81
48053;BME280;33824;51.600;5.718;2023-01-28T08:21:58;102914.47;;;2.86;74.75
48053;BME280;33824;51.600;5.718;2023-01-28T08:24:24;102917.91;;;2.88;74.77
48053;BME280;33824;51.600;5.718;2023-01-28T08:26:49;102922.97;;;2.93;74.32
48053;BME280;33824;51.600;5.718;2023-01-28T08:29:15;102919.97;;;3.00;74.46
48053;BME280;33824;51.600;5.718;2023-01-28T08:31:41;102939.00;;;3.05;74.85
48053;BME280;33824;51.600;5.718;2023-01-28T08:34:07;102934.75;;;3.03;74.17
48053;BME280;33824;51.600;5.718;2023-01-28T08:36:32;102936.31;;;3.07;74.41
48053;BME280;33824;51.600;5.718;2023-01-28T08:38:58;102938.94;;;3.07;74.51
48053;BME280;33824;51.600;5.718;2023-01-28T08:41:23;102935.25;;;3.11;74.60
48053;BME280;33824;51.600;5.718;2023-01-28T08:43:49;102927.50;;;3.08;74.23
48053;BME280;33824;51.600;5.718;2023-01-28T08:46:15;102939.88;;;3.06;74.26
48053;BME280;33824;51.600;5.718;2023-01-28T08:48:40;102940.41;;;3.12;74.81
48053;BME280;33824;51.600;5.718;2023-01-28T08:51:06;102945.25;;;3.04;74.45
48053;BME280;33824;51.600;5.718;2023-01-28T08:53:32;102942.66;;;3.03;74.00
48053;BME280;33824;51.600;5.718;2023-01-28T08:55:57;102943.44;;;3.05;74.29
48053;BME280;33824;51.600;5.718;2023-01-28T08:58:23;102949.72;;;3.02;74.60
48053;BME280;33824;51.600;5.718;2023-01-28T09:00:49;102948.56;;;3.08;74.15
48053;BME280;33824;51.600;5.718;2023-01-28T09:03:15;102954.44;;;3.13;74.23
48053;BME280;33824;51.600;5.718;2023-01-28T09:05:41;102954.28;;;3.16;74.88
48053;BME280;33824;51.600;5.718;2023-01-28T09:08:12;102961.75;;;3.08;74.61
48053;BME280;33824;51.600;5.718;2023-01-28T09:10:38;102968.88;;;3.06;74.13
48053;BME280;33824;51.600;5.718;2023-01-28T09:13:14;102962.72;;;3.05;73.92
48053;BME280;33824;51.600;5.718;2023-01-28T09:15:41;102966.31;;;3.04;73.98
48053;BME280;33824;51.600;5.718;2023-01-28T09:18:06;102969.78;;;3.05;73.70
48053;BME280;33824;51.600;5.718;2023-01-28T09:20:33;102964.97;;;2.96;73.21
48053;BME280;33824;51.600;5.718;2023-01-28T09:23:00;102973.50;;;3.01;73.74
48053;BME280;33824;51.600;5.718;2023-01-28T09:25:26;102976.13;;;3.01;73.63
48053;BME280;33824;51.600;5.718;2023-01-28T09:27:52;102978.16;;;2.96;73.08
48053;BME280;33824;51.600;5.718;2023-01-28T09:30:17;102971.38;;;2.90;72.85
48053;BME280;33824;51.600;5.718;2023-01-28T09:32:43;102962.75;;;2.86;73.22
48053;BME280;33824;51.600;5.718;2023-01-28T09:35:09;102962.63;;;2.89;73.04
48053;BME280;33824;51.600;5.718;2023-01-28T09:37:34;102969.31;;;2.97;73.04
48053;BME280;33824;51.600;5.718;2023-01-28T09:40:01;102971.88;;;2.98;72.99
48053;BME280;33824;51.600;5.718;2023-01-28T09:45:14;102978.31;;;2.93;72.68
48053;BME280;33824;51.600;5.718;2023-01-28T09:47:42;102997.00;;;2.86;72.79
48053;BME280;33824;51.600;5.718;2023-01-28T09:50:15;102991.53;;;2.72;72.09
48053;BME280;33824;51.600;5.718;2023-01-28T09:52:41;102981.56;;;2.79;72.82
48053;BME280;33824;51.600;5.718;2023-01-28T09:57:50;102994.69;;;2.80;72.73
48053;BME280;33824;51.600;5.718;2023-01-28T10:00:32;102999.75;;;2.85;72.36
48053;BME280;33824;51.600;5.718;2023-01-28T10:06:05;102995.09;;;2.71;72.73
48053;BME280;33824;51.600;5.718;2023-01-28T10:12:10;103016.81;;;2.76;72.73
48053;BME280;33824;51.600;5.718;2023-01-28T10:14:52;103020.66;;;2.69;72.41
48053;BME280;33824;51.600;5.718;2023-01-28T10:17:39;103016.47;;;2.65;73.23
48053;BME280;33824;51.600;5.718;2023-01-28T10:25:31;103021.44;;;2.71;73.37
48053;BME280;33824;51.600;5.718;2023-01-28T10:28:00;103012.06;;;2.84;73.99
48053;BME280;33824;51.600;5.718;2023-01-28T10:30:31;103006.44;;;2.92;73.85
48053;BME280;33824;51.600;5.718;2023-01-28T10:33:30;103000.50;;;2.87;73.34
48053;BME280;33824;51.600;5.718;2023-01-28T10:35:58;103010.88;;;3.09;72.17
48053;BME280;33824;51.600;5.718;2023-01-28T10:38:24;103002.84;;;3.12;72.46
48053;BME280;33824;51.600;5.718;2023-01-28T10:40:51;102999.22;;;3.14;71.60
48053;BME280;33824;51.600;5.718;2023-01-28T10:43:24;103013.19;;;2.98;72.11
48053;BME280;33824;51.600;5.718;2023-01-28T10:46:13;103011.97;;;2.86;73.06
48053;BME280;33824;51.600;5.718;2023-01-28T10:48:54;103003.88;;;2.72;73.39
48053;BME280;33824;51.600;5.718;2023-01-28T10:51:32;103003.50;;;2.79;74.00
48053;BME280;33824;51.600;5.718;2023-01-28T10:53:58;102986.28;;;2.72;73.78
48053;BME280;33824;51.600;5.718;2023-01-28T10:56:27;103009.28;;;2.69;73.29
48053;BME280;33824;51.600;5.718;2023-01-28T10:59:06;103005.56;;;2.73;73.22
48053;BME280;33824;51.600;5.718;2023-01-28T11:01:46;103003.84;;;2.90;73.51
48053;BME280;33824;51.600;5.718;2023-01-28T11:04:25;103003.09;;;2.88;73.65
48053;BME280;33824;51.600;5.718;2023-01-28T11:07:03;102987.84;;;2.95;73.50
48053;BME280;33824;51.600;5.718;2023-01-28T11:09:36;103006.63;;;2.87;73.64
48053;BME280;33824;51.600;5.718;2023-01-28T11:12:34;103010.84;;;2.73;73.49
48053;BME280;33824;51.600;5.718;2023-01-28T11:15:02;102999.25;;;2.77;73.51
48053;BME280;33824;51.600;5.718;2023-01-28T11:17:31;102988.19;;;2.69;73.75
48053;BME280;33824;51.600;5.718;2023-01-28T11:20:09;102989.41;;;2.62;73.12
48053;BME280;33824;51.600;5.718;2023-01-28T11:22:38;102983.56;;;2.93;73.75
48053;BME280;33824;51.600;5.718;2023-01-28T11:27:53;102972.91;;;3.13;73.14
48053;BME280;33824;51.600;5.718;2023-01-28T11:30:23;102972.16;;;3.28;73.58
48053;BME280;33824;51.600;5.718;2023-01-28T11:32:59;102951.63;;;3.34;72.92
48053;BME280;33824;51.600;5.718;2023-01-28T11:35:28;102949.78;;;3.54;72.92
48053;BME280;33824;51.600;5.718;2023-01-28T11:38:00;102946.59;;;3.64;72.54
48053;BME280;33824;51.600;5.718;2023-01-28T11:40:26;102956.19;;;3.65;72.12
48053;BME280;33824;51.600;5.718;2023-01-28T11:42:53;102940.47;;;3.64;72.42
48053;BME280;33824;51.600;5.718;2023-01-28T11:45:34;102943.72;;;3.52;71.06
48053;BME280;33824;51.600;5.718;2023-01-28T11:48:15;102942.78;;;3.53;71.70
48053;BME280;33824;51.600;5.718;2023-01-28T12:00:59;102893.66;;;3.67;71.34
48053;BME280;33824;51.600;5.718;2023-01-28T12:08:55;102865.72;;;3.96;70.86
48053;BME280;33824;51.600;5.718;2023-01-28T12:11:45;102856.47;;;4.05;70.99
48053;BME280;33824;51.600;5.718;2023-01-28T12:17:25;102864.50;;;4.34;70.89
48053;BME280;33824;51.600;5.718;2023-01-28T12:25:41;102867.69;;;4.41;68.92
48053;BME280;33824;51.600;5.718;2023-01-28T12:28:27;102869.88;;;4.49;69.22
48053;BME280;33824;51.600;5.718;2023-01-28T12:31:04;102876.34;;;4.43;69.57
48053;BME280;33824;51.600;5.718;2023-01-28T12:34:04;102866.63;;;4.28;69.54
48053;BME280;33824;51.600;5.718;2023-01-28T12:36:55;102883.25;;;4.14;69.48
48053;BME280;33824;51.600;5.718;2023-01-28T12:42:09;102894.41;;;4.51;69.19
48053;BME280;33824;51.600;5.718;2023-01-28T12:44:44;102898.81;;;4.19;68.28
48053;BME280;33824;51.600;5.718;2023-01-28T12:47:32;102887.91;;;4.09;68.55
48053;BME280;33824;51.600;5.718;2023-01-28T12:50:12;102894.13;;;4.08;68.99
48053;BME280;33824;51.600;5.718;2023-01-28T12:52:48;102896.16;;;4.19;69.72
48053;BME280;33824;51.600;5.718;2023-01-28T12:55:31;102906.56;;;4.06;68.66
48053;BME280;33824;51.600;5.718;2023-01-28T12:58:00;102900.75;;;4.15;69.63
48053;BME280;33824;51.600;5.718;2023-01-28T13:00:38;102904.66;;;4.08;69.79
48053;BME280;33824;51.600;5.718;2023-01-28T13:04:02;102900.31;;;4.07;69.32
48053;BME280;33824;51.600;5.718;2023-01-28T13:06:34;102899.75;;;4.18;69.21
48053;BME280;33824;51.600;5.718;2023-01-28T13:09:12;102898.41;;;4.11;69.37
48053;BME280;33824;51.600;5.718;2023-01-28T13:11:41;102894.75;;;4.29;70.13
48053;BME280;33824;51.600;5.718;2023-01-28T13:14:11;102888.63;;;4.28;69.57
48053;BME280;33824;51.600;5.718;2023-01-28T13:16:37;102889.13;;;4.51;69.70
48053;BME280;33824;51.600;5.718;2023-01-28T13:19:20;102894.84;;;4.43;69.04
48053;BME280;33824;51.600;5.718;2023-01-28T13:21:46;102885.75;;;4.49;69.54
48053;BME280;33824;51.600;5.718;2023-01-28T13:31:45;102888.53;;;4.46;69.44
48053;BME280;33824;51.600;5.718;2023-01-28T13:36:52;102882.66;;;4.56;69.88
48053;BME280;33824;51.600;5.718;2023-01-28T13:39:20;102879.66;;;4.62;70.06
48053;BME280;33824;51.600;5.718;2023-01-28T13:41:51;102874.13;;;4.51;70.46
48053;BME280;33824;51.600;5.718;2023-01-28T13:46:54;102859.94;;;4.83;70.51
48053;BME280;33824;51.600;5.718;2023-01-28T13:49:26;102857.72;;;4.92;69.97
48053;BME280;33824;51.600;5.718;2023-01-28T13:54:35;102839.72;;;4.98;69.15
48053;BME280;33824;51.600;5.718;2023-01-28T13:57:30;102836.38;;;4.95;69.50
48053;BME280;33824;51.600;5.718;2023-01-28T14:00:19;102821.16;;;4.84;69.15
48053;BME280;33824;51.600;5.718;2023-01-28T14:06:28;102799.25;;;4.82;69.71
48053;BME280;33824;51.600;5.718;2023-01-28T14:11:56;102809.06;;;4.64;69.41
48053;BME280;33824;51.600;5.718;2023-01-28T14:20:00;102833.56;;;4.68;70.38
48053;BME280;33824;51.600;5.718;2023-01-28T14:22:26;102834.13;;;4.73;70.46
48053;BME280;33824;51.600;5.718;2023-01-28T14:24:52;102842.56;;;4.79;70.08
48053;BME280;33824;51.600;5.718;2023-01-28T14:27:24;102847.56;;;4.84;70.12
48053;BME280;33824;51.600;5.718;2023-01-28T14:32:45;102858.31;;;4.97;70.05
48053;BME280;33824;51.600;5.718;2023-01-28T14:35:23;102845.69;;;5.02;70.37
48053;BME280;33824;51.600;5.718;2023-01-28T14:37:50;102842.94;;;5.03;70.10
48053;BME280;33824;51.600;5.718;2023-01-28T14:40:16;102842.81;;;4.91;69.58
48053;BME280;33824;51.600;5.718;2023-01-28T14:42:45;102853.38;;;4.91;70.21
48053;BME280;33824;51.600;5.718;2023-01-28T14:51:11;102871.09;;;4.89;69.98
48053;BME280;33824;51.600;5.718;2023-01-28T14:59:36;102860.91;;;4.82;69.69